createdAt,value
2019-02-19T00:00:43.658Z,63.80
2019-02-19T00:04:48.214Z,64.20
2019-02-19T00:08:52.741Z,64.00
2019-02-19T00:12:57.287Z,64.10
2019-02-19T00:17:01.816Z,64.20
2019-02-19T00:21:06.367Z,63.90
2019-02-19T00:25:10.961Z,64.30
2019-02-19T00:29:15.499Z,64.30
2019-02-19T00:33:20.045Z,64.20
2019-02-19T00:37:24.597Z,64.20
2019-02-19T00:41:29.139Z,64.30
2019-02-19T00:45:33.640Z,64.50
2019-02-19T00:49:38.188Z,64.50
2019-02-19T00:53:42.825Z,64.50
2019-02-19T00:57:46.286Z,64.80
2019-02-19T01:01:49.730Z,65.60
2019-02-19T01:05:53.278Z,66.10
2019-02-19T01:11:45.268Z,66.80
2019-02-19T01:15:49.731Z,67.10
2019-02-19T01:19:54.266Z,66.40
2019-02-19T01:23:58.831Z,66.30
2019-02-19T01:28:03.379Z,66.00
2019-02-19T01:32:07.901Z,65.80
2019-02-19T01:36:12.423Z,65.90
2019-02-19T01:40:16.955Z,65.90
2019-02-19T01:44:22.409Z,65.90
2019-02-19T01:48:26.923Z,66.00
2019-02-19T01:52:31.495Z,65.90
2019-02-19T01:56:36.003Z,66.00
2019-02-19T02:00:40.649Z,66.10
2019-02-19T02:04:45.215Z,66.10
2019-02-19T02:08:49.730Z,66.20
2019-02-19T02:12:54.275Z,66.10
2019-02-19T02:16:58.797Z,66.30
2019-02-19T02:21:03.324Z,66.30
2019-02-19T02:25:07.906Z,66.30
2019-02-19T02:29:12.476Z,66.40
2019-02-19T02:33:17.014Z,66.50
2019-02-19T02:37:21.518Z,66.40
2019-02-19T02:41:26.039Z,66.60
2019-02-19T02:45:30.628Z,66.80
2019-02-19T02:49:35.168Z,66.70
2019-02-19T02:53:39.707Z,66.70
2019-02-19T02:57:44.244Z,66.70
2019-02-19T03:01:48.736Z,66.70
2019-02-19T03:06:09.026Z,66.90
2019-02-19T03:10:13.580Z,67.10
2019-02-19T03:14:18.156Z,67.10
2019-02-19T03:18:22.723Z,67.90
2019-02-19T03:22:27.319Z,67.20
2019-02-19T03:26:31.879Z,67.30
2019-02-19T03:30:36.432Z,67.40
2019-02-19T03:34:40.973Z,67.50
2019-02-19T03:38:45.507Z,67.50
2019-02-19T03:42:50.009Z,67.50
2019-02-19T03:46:54.559Z,67.70
2019-02-19T03:50:59.112Z,67.90
2019-02-19T03:55:03.657Z,67.90
2019-02-19T03:59:08.213Z,68.00
2019-02-19T04:03:12.766Z,68.10
2019-02-19T04:07:17.338Z,68.20
2019-02-19T04:11:21.898Z,68.30
2019-02-19T04:15:26.456Z,68.60
2019-02-19T04:19:31.008Z,68.50
2019-02-19T04:23:35.516Z,68.80
2019-02-19T04:27:40.054Z,68.70
2019-02-19T04:31:44.594Z,68.90
2019-02-19T04:35:49.138Z,69.00
2019-02-19T04:39:53.687Z,69.30
2019-02-19T04:43:58.187Z,70.00
2019-02-19T04:48:02.783Z,69.80
2019-02-19T04:52:07.308Z,69.80
2019-02-19T04:56:11.851Z,70.30
2019-02-19T05:00:16.527Z,70.20
2019-02-19T05:04:21.034Z,70.50
2019-02-19T05:08:25.640Z,70.60
2019-02-19T05:12:30.184Z,70.70
2019-02-19T05:16:40.640Z,70.70
2019-02-19T05:20:40.923Z,71.00
2019-02-19T05:24:45.647Z,71.10
2019-02-19T05:28:50.185Z,71.10
2019-02-19T05:32:54.728Z,71.80
2019-02-19T05:36:59.281Z,71.00
2019-02-19T05:41:03.810Z,71.10
2019-02-19T05:45:08.422Z,71.20
2019-02-19T05:49:12.964Z,71.20
2019-02-19T05:53:17.511Z,71.20
2019-02-19T05:57:22.059Z,71.20
2019-02-19T06:01:26.607Z,71.40
2019-02-19T06:05:31.170Z,71.50
2019-02-19T06:09:35.767Z,71.60
2019-02-19T06:13:40.363Z,71.40
2019-02-19T06:17:44.903Z,71.90
2019-02-19T06:21:49.504Z,71.80
2019-02-19T06:25:54.035Z,72.60
2019-02-19T06:29:58.571Z,71.90
2019-02-19T06:34:03.118Z,71.90
2019-02-19T06:38:07.684Z,72.60
2019-02-19T06:42:12.395Z,72.80
2019-02-19T06:46:16.971Z,72.60
2019-02-19T06:50:21.555Z,72.60
2019-02-19T06:54:26.113Z,72.80
2019-02-19T06:58:30.791Z,72.90
2019-02-19T07:02:44.601Z,73.70
2019-02-19T07:06:49.199Z,73.50
2019-02-19T07:10:53.776Z,73.80
2019-02-19T07:14:58.344Z,74.10
2019-02-19T07:19:02.929Z,74.20
2019-02-19T07:23:07.495Z,74.10
2019-02-19T07:27:12.037Z,74.50
2019-02-19T07:31:16.594Z,74.10
2019-02-19T07:35:21.166Z,74.10
2019-02-19T07:39:25.720Z,74.30
2019-02-19T07:43:30.323Z,74.60
2019-02-19T07:47:34.847Z,74.70
2019-02-19T07:51:39.393Z,75.30
2019-02-19T07:55:43.966Z,75.60
2019-02-19T07:59:48.532Z,74.80
2019-02-19T08:03:53.177Z,74.80
2019-02-19T08:07:57.827Z,74.80
2019-02-19T08:12:02.408Z,75.10
2019-02-19T08:16:06.963Z,74.60
2019-02-19T08:20:15.768Z,75.40
2019-02-19T08:24:17.764Z,75.60
2019-02-19T08:28:22.328Z,75.80
2019-02-19T08:32:26.914Z,76.20
2019-02-19T08:36:31.529Z,75.80
2019-02-19T08:40:36.570Z,75.60
2019-02-19T08:44:41.141Z,75.20
2019-02-19T08:48:45.717Z,75.00
2019-02-19T08:52:52.262Z,75.00
2019-02-19T08:56:58.237Z,75.00
2019-02-19T09:01:02.913Z,75.30
2019-02-19T09:05:07.678Z,74.90
2019-02-19T09:09:12.261Z,75.00
2019-02-19T09:13:16.844Z,74.50
2019-02-19T09:17:21.388Z,74.70
2019-02-19T09:21:25.964Z,74.30
2019-02-19T09:25:30.533Z,74.10
2019-02-19T09:29:35.082Z,73.90
2019-02-19T09:33:39.652Z,74.00
2019-02-19T09:37:44.210Z,74.10
2019-02-19T09:41:48.791Z,74.40
2019-02-19T09:45:53.363Z,75.00
2019-02-19T09:49:57.883Z,73.90
2019-02-19T09:54:02.480Z,73.60
2019-02-19T09:58:07.019Z,73.70
2019-02-19T10:02:11.583Z,73.70
2019-02-19T10:06:16.225Z,74.80
2019-02-19T10:12:56.492Z,75.00
2019-02-19T10:17:01.029Z,75.70
2019-02-19T10:21:05.577Z,75.40
2019-02-19T10:25:11.149Z,75.40
2019-02-19T10:29:15.715Z,74.00
2019-02-19T10:33:20.270Z,74.40
2019-02-19T10:37:24.822Z,74.60
2019-02-19T10:41:29.331Z,74.30
2019-02-19T10:45:33.889Z,75.00
2019-02-19T10:49:38.431Z,75.00
2019-02-19T10:53:43.001Z,74.30
2019-02-19T11:01:50.280Z,74.60
2019-02-19T11:05:54.868Z,75.20
2019-02-19T11:09:59.415Z,74.20
2019-02-19T11:14:03.991Z,74.70
2019-02-19T11:18:08.512Z,74.70
2019-02-19T11:22:13.574Z,74.90
2019-02-19T11:26:18.308Z,74.50
2019-02-19T11:30:22.858Z,74.50
2019-02-19T11:34:27.403Z,73.60
2019-02-19T11:38:31.910Z,74.40
2019-02-19T11:42:36.499Z,74.10
2019-02-19T11:46:41.068Z,73.60
2019-02-19T11:50:45.625Z,73.20
2019-02-19T11:54:50.256Z,72.50
2019-02-19T11:58:54.787Z,72.30
2019-02-19T12:02:59.344Z,71.50
2019-02-19T12:07:03.940Z,71.70
2019-02-19T12:11:08.519Z,71.50
2019-02-19T12:15:13.162Z,71.10
2019-02-19T12:19:17.773Z,71.50
2019-02-19T12:23:22.401Z,70.80
2019-02-19T12:27:26.970Z,71.60
2019-02-19T12:31:31.540Z,71.00
2019-02-19T12:35:36.101Z,71.80
2019-02-19T12:39:40.632Z,71.70
2019-02-19T12:43:45.248Z,71.40
2019-02-19T12:47:49.815Z,72.00
2019-02-19T12:51:55.602Z,73.10
2019-02-19T12:56:00.218Z,73.00
2019-02-19T13:00:05.184Z,72.50
2019-02-19T13:04:09.758Z,72.60
2019-02-19T13:08:14.343Z,71.90
2019-02-19T13:12:18.939Z,72.30
2019-02-19T13:16:23.448Z,72.70
2019-02-19T13:20:28.007Z,72.70
2019-02-19T13:24:32.572Z,70.40
2019-02-19T13:28:37.136Z,70.70
2019-02-19T13:32:41.696Z,70.90
2019-02-19T13:36:46.223Z,70.60
2019-02-19T13:40:50.776Z,70.00
2019-02-19T13:44:55.369Z,69.70
2019-02-19T13:48:59.915Z,70.10
2019-02-19T13:53:30.981Z,69.60
2019-02-19T13:57:35.530Z,69.40
2019-02-19T14:01:40.061Z,69.80
2019-02-19T14:05:44.678Z,71.70
2019-02-19T14:09:49.215Z,70.30
2019-02-19T14:14:18.519Z,70.00
2019-02-19T14:18:45.033Z,69.90
2019-02-19T14:23:10.799Z,70.10
2019-02-19T14:27:32.140Z,70.10
2019-02-19T14:32:13.801Z,70.80
2019-02-19T14:36:34.762Z,70.80
2019-02-19T14:40:57.523Z,70.70
2019-02-19T14:45:23.952Z,70.80
2019-02-19T14:49:59.581Z,71.10
2019-02-19T14:54:32.164Z,70.80
2019-02-19T14:59:01.448Z,71.10
2019-02-19T15:03:40.257Z,70.70
2019-02-19T15:07:57.202Z,70.80
2019-02-19T15:12:20.670Z,71.40
2019-02-19T15:16:49.388Z,70.70
2019-02-19T15:21:15.672Z,69.00
2019-02-19T15:25:42.215Z,69.90
2019-02-19T15:30:11.940Z,70.00
2019-02-19T15:34:34.380Z,70.20
2019-02-19T15:39:10.220Z,69.50
2019-02-19T15:43:48.937Z,69.90
2019-02-19T15:48:03.024Z,69.80
2019-02-19T15:52:25.390Z,69.10
2019-02-19T15:56:54.687Z,69.60
2019-02-19T16:01:23.984Z,70.00
2019-02-19T16:05:39.823Z,70.20
2019-02-19T16:10:02.175Z,70.80
2019-02-19T16:14:23.247Z,72.50
2019-02-19T16:18:45.301Z,73.10
2019-02-19T16:23:05.267Z,73.40
2019-02-19T16:27:22.309Z,72.70
2019-02-19T16:31:51.535Z,72.30
2019-02-19T16:36:01.891Z,72.50
2019-02-19T16:40:28.676Z,71.60
2019-02-19T16:44:51.295Z,71.50
2019-02-19T16:49:00.337Z,71.00
2019-02-19T16:53:26.643Z,71.50
2019-02-19T16:57:54.632Z,72.30
2019-02-19T17:02:17.170Z,73.90
2019-02-19T17:06:43.473Z,76.20
2019-02-19T17:11:03.435Z,77.00
2019-02-19T17:15:25.820Z,76.50
2019-02-19T17:19:52.350Z,76.90
2019-02-19T17:24:04.183Z,77.30
2019-02-19T17:28:24.932Z,76.10
2019-02-19T17:32:45.773Z,75.70
2019-02-19T17:37:09.361Z,75.20
2019-02-19T17:41:29.665Z,76.00
2019-02-19T17:45:49.666Z,76.40
2019-02-19T17:50:22.267Z,75.50
2019-02-19T17:54:41.694Z,75.40
2019-02-19T17:58:52.606Z,75.50
2019-02-19T18:03:19.008Z,75.20
2019-02-19T18:07:46.157Z,75.10
2019-02-19T18:11:59.172Z,75.90
2019-02-19T18:16:23.703Z,75.50
2019-02-19T18:20:28.232Z,75.30
2019-02-19T18:24:34.365Z,75.80
2019-02-19T18:28:39.024Z,77.00
2019-02-19T18:32:43.595Z,76.30
2019-02-19T18:36:48.145Z,76.20
2019-02-19T18:40:52.702Z,77.30
2019-02-19T18:44:57.262Z,76.30
2019-02-19T18:49:01.856Z,76.30
2019-02-19T18:53:06.435Z,75.80
2019-02-19T18:57:11.005Z,75.90
2019-02-19T19:01:15.535Z,75.80
2019-02-19T19:05:20.135Z,75.80
2019-02-19T19:09:24.685Z,75.70
2019-02-19T19:13:29.238Z,75.50
2019-02-19T19:17:33.832Z,75.70
2019-02-19T19:21:38.370Z,75.70
2019-02-19T19:25:42.935Z,75.70
2019-02-19T19:29:47.496Z,75.70
2019-02-19T19:33:52.115Z,75.70
2019-02-19T19:37:56.617Z,75.50
2019-02-19T19:42:01.172Z,75.40
2019-02-19T19:46:05.730Z,75.50
2019-02-19T19:50:10.333Z,75.70
2019-02-19T19:54:14.912Z,75.70
2019-02-19T19:58:19.422Z,75.80
2019-02-19T20:02:23.975Z,75.80
2019-02-19T20:06:28.580Z,75.70
2019-02-19T20:10:33.131Z,75.70
2019-02-19T20:14:37.719Z,75.50
2019-02-19T20:18:42.233Z,75.40
2019-02-19T20:22:46.805Z,75.40
2019-02-19T20:26:51.364Z,75.50
2019-02-19T20:30:55.919Z,75.50
2019-02-19T20:35:00.424Z,75.70
2019-02-19T20:39:05.880Z,75.50
2019-02-19T20:43:10.502Z,75.50
2019-02-19T20:47:15.054Z,76.20
2019-02-19T20:51:19.618Z,75.30
2019-02-19T20:55:24.133Z,75.40
2019-02-19T20:59:28.680Z,75.30
2019-02-19T21:03:33.227Z,75.20
2019-02-19T21:07:37.827Z,75.30
2019-02-19T21:11:42.391Z,75.50
2019-02-19T21:15:46.900Z,75.20
2019-02-19T21:19:51.444Z,75.10
2019-02-19T21:23:56.036Z,75.10
2019-02-19T21:28:00.587Z,75.20
2019-02-19T21:32:05.091Z,75.10
2019-02-19T21:36:09.681Z,75.20
2019-02-19T21:40:14.229Z,75.20
2019-02-19T21:44:19.488Z,75.10
2019-02-19T21:48:24.045Z,75.30
2019-02-19T21:52:28.583Z,75.00
2019-02-19T21:56:33.187Z,74.90
2019-02-19T22:00:37.739Z,74.90
2019-02-19T22:04:42.282Z,74.60
2019-02-19T22:08:47.173Z,74.60
2019-02-19T22:12:51.674Z,74.50
2019-02-19T22:16:56.218Z,74.30
2019-02-19T22:21:08.917Z,74.30
2019-02-19T22:25:13.492Z,74.40
2019-02-19T22:29:18.055Z,74.30
2019-02-19T22:33:22.592Z,74.30
2019-02-19T22:37:27.136Z,74.10
2019-02-19T22:41:31.684Z,74.20
2019-02-19T22:45:36.245Z,74.40
2019-02-19T22:49:40.792Z,74.20
2019-02-19T22:53:51.992Z,74.10
2019-02-19T22:57:56.587Z,74.40
2019-02-19T23:02:10.204Z,74.20
2019-02-19T23:06:14.795Z,74.30
2019-02-19T23:10:19.340Z,74.20
2019-02-19T23:14:23.870Z,74.20
2019-02-19T23:18:28.403Z,73.70
2019-02-19T23:22:32.955Z,74.50
2019-02-19T23:26:37.503Z,74.40
2019-02-19T23:30:42.084Z,74.20
2019-02-19T23:34:48.171Z,74.40
2019-02-19T23:38:52.711Z,74.20
2019-02-19T23:42:57.277Z,74.10
2019-02-19T23:47:01.831Z,74.00
2019-02-19T23:51:06.360Z,74.00
2019-02-19T23:55:10.890Z,74.00
2019-02-19T23:59:15.444Z,73.90
